createdAt,value
2023-05-16T00:02:19.424Z,13.41
2023-05-16T00:04:47.512Z,13.56
2023-05-16T00:07:15.516Z,13.64
2023-05-16T00:09:43.034Z,13.53
2023-05-16T00:12:10.949Z,13.44
2023-05-16T00:14:38.455Z,13.54
2023-05-16T00:17:11.824Z,12.90
2023-05-16T00:19:40.087Z,12.84
2023-05-16T00:22:07.591Z,12.97
2023-05-16T00:24:35.357Z,13.18
2023-05-16T00:27:04.019Z,12.79
2023-05-16T00:29:32.149Z,12.93
2023-05-16T00:31:59.670Z,13.18
2023-05-16T00:34:28.513Z,12.88
2023-05-16T00:36:56.165Z,13.02
2023-05-16T00:39:23.628Z,12.90
2023-05-16T00:41:51.281Z,12.99
2023-05-16T00:44:18.794Z,12.67
2023-05-16T00:46:46.390Z,12.55
2023-05-16T00:49:14.149Z,12.84
2023-05-16T00:51:43.522Z,12.89
2023-05-16T00:54:11.829Z,12.50
2023-05-16T00:56:39.618Z,12.42
2023-05-16T00:59:07.133Z,12.43
2023-05-16T01:01:36.417Z,12.47
2023-05-16T01:04:04.884Z,12.60
2023-05-16T01:06:34.127Z,12.58
2023-05-16T01:09:03.215Z,12.21
2023-05-16T01:11:37.291Z,12.43
2023-05-16T01:14:13.154Z,12.21
2023-05-16T01:16:47.262Z,12.17
2023-05-16T01:19:22.253Z,12.35
2023-05-16T01:21:57.361Z,12.44
2023-05-16T01:24:35.162Z,12.51
2023-05-16T01:27:06.014Z,12.34
2023-05-16T01:29:33.513Z,12.39
2023-05-16T01:32:01.183Z,12.50
2023-05-16T01:34:28.734Z,12.58
2023-05-16T01:37:04.332Z,12.18
2023-05-16T01:39:42.006Z,12.32
2023-05-16T01:42:15.061Z,12.39
2023-05-16T01:44:46.433Z,12.27
2023-05-16T01:47:16.342Z,12.34
2023-05-16T01:49:51.238Z,12.41
2023-05-16T01:52:23.537Z,12.50
2023-05-16T01:54:54.454Z,12.25
2023-05-16T01:57:27.083Z,11.97
2023-05-16T01:59:54.869Z,11.54
2023-05-16T02:02:22.389Z,11.31
2023-05-16T02:04:49.874Z,11.37
2023-05-16T02:07:17.369Z,11.38
2023-05-16T02:09:44.864Z,11.34
2023-05-16T02:12:12.398Z,11.56
2023-05-16T02:14:41.201Z,11.19
2023-05-16T02:17:08.765Z,11.02
2023-05-16T02:19:36.291Z,10.97
2023-05-16T02:22:03.873Z,10.88
2023-05-16T02:24:31.390Z,11.08
2023-05-16T02:26:58.849Z,11.26
2023-05-16T02:29:26.299Z,11.07
2023-05-16T02:31:55.121Z,10.87
2023-05-16T02:34:22.872Z,10.99
2023-05-16T02:36:50.462Z,11.19
2023-05-16T02:39:17.926Z,11.23
2023-05-16T02:41:45.429Z,11.21
2023-05-16T02:44:12.907Z,10.86
2023-05-16T02:46:40.554Z,10.74
2023-05-16T02:49:09.459Z,10.66
2023-05-16T02:51:36.920Z,10.56
2023-05-16T02:54:04.499Z,10.69
2023-05-16T02:56:32.249Z,10.67
2023-05-16T02:59:01.197Z,10.71
2023-05-16T03:01:28.829Z,11.05
2023-05-16T03:03:56.493Z,10.86
2023-05-16T03:06:25.389Z,10.71
2023-05-16T03:08:52.889Z,10.66
2023-05-16T03:11:22.791Z,10.86
2023-05-16T03:13:50.314Z,10.70
2023-05-16T03:16:17.884Z,10.97
2023-05-16T03:18:45.499Z,10.91
2023-05-16T03:21:13.315Z,11.18
2023-05-16T03:23:42.106Z,11.03
2023-05-16T03:26:09.718Z,10.96
2023-05-16T03:28:38.093Z,11.00
2023-05-16T03:31:05.707Z,10.97
2023-05-16T03:33:33.196Z,11.13
2023-05-16T03:36:00.699Z,11.00
2023-05-16T03:38:28.250Z,10.90
2023-05-16T03:40:57.110Z,10.74
2023-05-16T03:43:24.678Z,10.77
2023-05-16T03:45:52.207Z,11.05
2023-05-16T03:48:19.760Z,10.90
2023-05-16T03:50:47.749Z,10.97
2023-05-16T03:53:15.310Z,11.10
2023-05-16T03:55:43.229Z,11.20
2023-05-16T03:58:12.587Z,11.27
2023-05-16T04:00:40.183Z,11.26
2023-05-16T04:03:08.620Z,11.60
2023-05-16T04:05:36.213Z,10.75
2023-05-16T04:08:03.863Z,10.66
2023-05-16T04:10:31.342Z,10.80
2023-05-16T04:12:58.781Z,10.43
2023-05-16T04:15:27.824Z,10.33
2023-05-16T04:17:55.633Z,10.67
2023-05-16T04:20:23.232Z,10.50
2023-05-16T04:22:50.786Z,10.31
2023-05-16T04:25:18.437Z,10.55
2023-05-16T04:27:45.934Z,10.87
2023-05-16T04:30:14.524Z,10.66
2023-05-16T04:32:43.704Z,10.94
2023-05-16T04:35:11.522Z,10.60
2023-05-16T04:37:39.006Z,10.51
2023-05-16T04:40:09.756Z,10.42
2023-05-16T04:42:37.419Z,10.65
2023-05-16T04:45:06.652Z,10.30
2023-05-16T04:47:34.288Z,10.51
2023-05-16T04:50:03.273Z,10.09
2023-05-16T04:52:30.758Z,10.20
2023-05-16T04:55:00.356Z,10.19
2023-05-16T04:57:28.137Z,10.22
2023-05-16T04:59:55.604Z,10.06
2023-05-16T05:02:23.235Z,10.22
2023-05-16T05:04:50.977Z,10.33
2023-05-16T05:07:19.946Z,10.31
2023-05-16T05:09:47.494Z,10.26
2023-05-16T05:12:14.975Z,10.22
2023-05-16T05:14:42.478Z,10.21
2023-05-16T05:17:09.995Z,10.19
2023-05-16T05:19:37.616Z,10.39
2023-05-16T05:22:05.245Z,10.40
2023-05-16T05:24:34.051Z,10.62
2023-05-16T05:27:01.551Z,10.74
2023-05-16T05:29:29.085Z,10.96
2023-05-16T05:31:56.641Z,10.73
2023-05-16T05:34:24.242Z,10.43
2023-05-16T05:36:52.365Z,10.70
2023-05-16T05:39:20.812Z,10.14
2023-05-16T05:41:49.699Z,10.42
2023-05-16T05:44:17.221Z,10.63
2023-05-16T05:46:45.197Z,10.61
2023-05-16T05:49:12.978Z,10.76
2023-05-16T05:51:40.680Z,11.08
2023-05-16T05:54:08.250Z,10.89
2023-05-16T05:56:35.977Z,11.08
2023-05-16T05:59:04.827Z,10.86
2023-05-16T06:01:32.353Z,10.80
2023-05-16T06:04:02.092Z,11.07
2023-05-16T06:06:31.073Z,11.12
2023-05-16T06:08:58.610Z,11.05
2023-05-16T06:11:26.734Z,10.85
2023-05-16T06:13:54.337Z,10.91
2023-05-16T06:16:26.388Z,10.66
2023-05-16T06:18:53.937Z,11.10
2023-05-16T06:21:21.456Z,11.05
2023-05-16T06:23:48.948Z,10.75
2023-05-16T06:26:16.603Z,10.78
2023-05-16T06:28:44.157Z,10.83
2023-05-16T06:31:11.720Z,11.35
2023-05-16T06:33:40.807Z,11.45
2023-05-16T06:36:08.802Z,11.49
2023-05-16T06:38:36.274Z,11.03
2023-05-16T06:41:03.753Z,11.11
2023-05-16T06:43:31.264Z,11.07
2023-05-16T06:45:58.824Z,11.03
2023-05-16T06:48:26.421Z,11.16
2023-05-16T06:50:55.342Z,11.32
2023-05-16T06:53:22.860Z,11.67
2023-05-16T06:55:50.383Z,11.63
2023-05-16T06:58:17.907Z,11.71
2023-05-16T07:00:45.416Z,11.33
2023-05-16T07:03:12.969Z,11.71
2023-05-16T07:05:40.573Z,11.99
2023-05-16T07:08:11.996Z,11.89
2023-05-16T07:10:39.666Z,11.66
2023-05-16T07:13:07.532Z,11.55
2023-05-16T07:15:35.053Z,11.70
2023-05-16T07:18:02.625Z,11.57
2023-05-16T07:20:30.253Z,11.78
2023-05-16T07:22:58.337Z,11.85
2023-05-16T07:25:27.758Z,11.78
2023-05-16T07:27:56.151Z,12.06
2023-05-16T07:30:23.694Z,12.15
2023-05-16T07:32:51.318Z,12.29
2023-05-16T07:35:18.864Z,12.39
2023-05-16T07:37:46.421Z,12.64
2023-05-16T07:40:14.925Z,13.12
2023-05-16T07:42:44.292Z,13.11
2023-05-16T07:45:11.838Z,13.24
2023-05-16T07:47:39.404Z,13.06
2023-05-16T07:50:07.773Z,12.73
2023-05-16T07:52:35.275Z,12.95
2023-05-16T07:55:02.821Z,12.43
2023-05-16T07:57:30.583Z,11.96
2023-05-16T07:59:59.558Z,12.33
2023-05-16T08:02:30.690Z,12.63
2023-05-16T08:04:58.715Z,12.58
2023-05-16T08:07:26.492Z,12.94
2023-05-16T08:09:54.002Z,13.13
2023-05-16T08:12:21.634Z,13.25
2023-05-16T08:14:49.144Z,13.31
2023-05-16T08:17:18.009Z,13.61
2023-05-16T08:19:46.216Z,13.53
2023-05-16T08:22:13.804Z,13.63
2023-05-16T08:24:41.343Z,13.49
2023-05-16T08:27:09.223Z,13.48
2023-05-16T08:29:36.743Z,13.51
2023-05-16T08:32:04.744Z,13.87
2023-05-16T08:34:33.640Z,13.54
2023-05-16T08:37:01.401Z,13.89
2023-05-16T08:39:30.547Z,13.82
2023-05-16T08:41:58.854Z,13.64
2023-05-16T08:44:26.474Z,13.40
2023-05-16T08:46:55.051Z,13.81
2023-05-16T08:49:22.900Z,14.14
2023-05-16T08:51:57.692Z,14.33
2023-05-16T08:54:27.444Z,14.58
2023-05-16T08:56:56.040Z,14.56
2023-05-16T08:59:23.651Z,14.71
2023-05-16T09:01:51.340Z,14.18
2023-05-16T09:04:19.299Z,13.92
2023-05-16T09:06:46.857Z,14.00
2023-05-16T09:09:15.759Z,14.35
2023-05-16T09:11:43.511Z,14.72
2023-05-16T09:14:11.019Z,14.76
2023-05-16T09:16:39.207Z,14.79
2023-05-16T09:19:06.922Z,15.47
2023-05-16T09:21:35.911Z,15.09
2023-05-16T09:24:08.052Z,15.09
2023-05-16T09:26:39.202Z,14.94
2023-05-16T09:29:11.727Z,14.69
2023-05-16T09:31:39.348Z,14.51
2023-05-16T09:34:09.453Z,14.57
2023-05-16T09:36:37.548Z,14.86
2023-05-16T09:39:05.513Z,14.64
2023-05-16T09:41:34.909Z,14.82
2023-05-16T09:44:05.491Z,14.78
2023-05-16T09:46:35.808Z,14.26
2023-05-16T09:49:03.800Z,14.55
2023-05-16T09:51:31.531Z,14.43
2023-05-16T09:54:00.010Z,15.07
2023-05-16T09:56:27.515Z,15.61
2023-05-16T09:58:55.127Z,15.91
2023-05-16T10:01:24.834Z,16.55
2023-05-16T10:03:53.057Z,17.28
2023-05-16T10:06:22.747Z,16.72
2023-05-16T10:08:51.711Z,16.53
2023-05-16T10:11:19.995Z,16.46
2023-05-16T10:13:52.981Z,16.61
2023-05-16T10:16:24.967Z,16.85
2023-05-16T10:18:53.356Z,16.60
2023-05-16T10:21:24.345Z,16.37
2023-05-16T10:23:54.444Z,16.02
2023-05-16T10:26:23.534Z,16.44
2023-05-16T10:28:52.069Z,16.74
2023-05-16T10:31:19.875Z,16.70
2023-05-16T10:33:49.500Z,16.52
2023-05-16T10:36:18.332Z,16.34
2023-05-16T10:38:46.832Z,16.47
2023-05-16T10:41:14.781Z,16.09
2023-05-16T10:43:46.519Z,16.58
2023-05-16T10:46:15.529Z,16.93
2023-05-16T10:48:43.393Z,17.20
2023-05-16T10:51:36.737Z,16.98
2023-05-16T10:54:10.375Z,16.32
2023-05-16T10:56:38.298Z,16.26
2023-05-16T10:59:05.872Z,15.67
2023-05-16T11:01:35.390Z,15.99
2023-05-16T11:04:08.565Z,16.08
2023-05-16T11:06:46.107Z,15.69
2023-05-16T11:09:22.698Z,15.39
2023-05-16T11:11:57.288Z,15.70
2023-05-16T11:14:26.248Z,16.37
2023-05-16T11:17:00.888Z,16.73
2023-05-16T11:19:37.138Z,17.13
2023-05-16T11:22:10.361Z,17.61
2023-05-16T11:24:39.398Z,17.73
2023-05-16T11:27:07.727Z,17.25
2023-05-16T11:29:37.400Z,16.78
2023-05-16T11:32:06.307Z,16.97
2023-05-16T11:34:37.629Z,16.77
2023-05-16T11:37:05.150Z,16.43
2023-05-16T11:39:34.415Z,16.60
2023-05-16T11:42:02.397Z,17.34
2023-05-16T11:44:29.917Z,17.62
2023-05-16T11:46:57.619Z,17.19
2023-05-16T11:49:26.893Z,16.73
2023-05-16T11:51:57.438Z,16.66
2023-05-16T11:54:25.547Z,16.56
2023-05-16T11:56:54.938Z,16.28
2023-05-16T11:59:22.916Z,16.08
2023-05-16T12:01:51.002Z,15.78
2023-05-16T12:04:20.609Z,15.73
2023-05-16T12:07:00.049Z,15.13
2023-05-16T12:09:27.574Z,15.01
2023-05-16T12:11:56.781Z,15.13
2023-05-16T12:14:25.968Z,15.88
2023-05-16T12:16:53.987Z,16.29
2023-05-16T12:19:22.413Z,17.06
2023-05-16T12:21:54.172Z,17.01
2023-05-16T12:24:22.108Z,17.60
2023-05-16T12:26:49.933Z,17.72
2023-05-16T12:29:24.989Z,18.34
2023-05-16T12:31:54.248Z,19.10
2023-05-16T12:34:23.110Z,18.61
2023-05-16T12:36:54.425Z,18.85
2023-05-16T12:39:22.897Z,18.28
2023-05-16T12:41:50.492Z,17.33
2023-05-16T12:44:20.506Z,17.03
2023-05-16T12:46:51.322Z,17.44
2023-05-16T12:49:21.447Z,18.07
2023-05-16T12:51:52.772Z,17.92
2023-05-16T12:54:22.866Z,17.87
2023-05-16T12:56:50.693Z,18.37
2023-05-16T12:59:20.151Z,19.03
2023-05-16T13:01:47.748Z,19.50
2023-05-16T13:04:19.169Z,20.07
2023-05-16T13:06:58.337Z,19.99
2023-05-16T13:09:32.124Z,20.52
2023-05-16T13:12:00.743Z,19.90
2023-05-16T13:14:29.760Z,19.05
2023-05-16T13:16:57.281Z,18.37
2023-05-16T13:19:25.222Z,18.52
2023-05-16T13:21:53.116Z,18.44
2023-05-16T13:24:20.683Z,18.31
2023-05-16T13:26:48.209Z,17.65
2023-05-16T13:29:15.787Z,17.37
2023-05-16T13:31:44.721Z,17.22
2023-05-16T13:34:12.600Z,17.49
2023-05-16T13:36:53.030Z,17.34
2023-05-16T13:39:22.750Z,17.35
2023-05-16T13:41:50.596Z,17.40
2023-05-16T13:44:18.235Z,17.05
2023-05-16T13:46:47.097Z,17.11
2023-05-16T13:49:15.003Z,16.89
2023-05-16T13:51:42.792Z,16.68
2023-05-16T13:54:10.283Z,16.53
2023-05-16T13:56:37.842Z,16.67
2023-05-16T13:59:07.229Z,16.40
2023-05-16T14:01:36.274Z,16.52
2023-05-16T14:04:05.526Z,17.35
2023-05-16T14:06:33.356Z,17.76
2023-05-16T14:09:01.029Z,17.98
2023-05-16T14:11:29.604Z,17.98
2023-05-16T14:13:57.550Z,18.04
2023-05-16T14:16:25.274Z,18.08
2023-05-16T14:18:54.004Z,17.73
2023-05-16T14:21:22.851Z,17.78
2023-05-16T14:23:50.426Z,18.52
2023-05-16T14:26:22.309Z,19.14
2023-05-16T14:28:49.856Z,19.27
2023-05-16T14:31:17.352Z,18.23
2023-05-16T14:33:44.820Z,17.85
2023-05-16T14:36:12.410Z,18.37
2023-05-16T14:38:41.584Z,18.41
2023-05-16T14:41:09.124Z,18.69
2023-05-16T14:43:37.951Z,18.76
2023-05-16T14:46:05.650Z,18.37
2023-05-16T14:48:33.436Z,17.92
2023-05-16T14:51:01.005Z,17.51
2023-05-16T14:53:28.565Z,17.33
2023-05-16T14:55:57.663Z,17.02
2023-05-16T14:58:25.564Z,16.86
2023-05-16T15:00:53.132Z,16.71
2023-05-16T15:03:20.684Z,16.86
2023-05-16T15:05:48.308Z,16.99
2023-05-16T15:08:15.823Z,16.99
2023-05-16T15:10:43.335Z,16.31
2023-05-16T15:13:12.198Z,16.49
2023-05-16T15:15:39.750Z,16.23
2023-05-16T15:18:07.313Z,16.44
2023-05-16T15:20:34.851Z,16.49
2023-05-16T15:23:02.367Z,16.27
2023-05-16T15:25:30.277Z,16.44
2023-05-16T15:27:57.978Z,16.30
2023-05-16T15:30:27.172Z,16.37
2023-05-16T15:32:54.714Z,16.31
2023-05-16T15:35:22.249Z,16.14
2023-05-16T15:37:50.762Z,15.59
2023-05-16T15:40:22.314Z,15.59
2023-05-16T15:42:52.612Z,15.89
2023-05-16T15:45:20.137Z,15.88
2023-05-16T15:47:48.968Z,15.82
2023-05-16T15:50:16.539Z,15.70
2023-05-16T15:52:44.714Z,15.43
2023-05-16T15:55:12.899Z,15.26
2023-05-16T15:57:40.565Z,15.67
2023-05-16T16:00:09.559Z,15.68
2023-05-16T16:02:37.114Z,15.53
2023-05-16T16:05:06.897Z,15.84
2023-05-16T16:07:34.402Z,15.92
2023-05-16T16:10:01.905Z,15.96
2023-05-16T16:12:31.305Z,15.64
2023-05-16T16:14:59.052Z,15.74
2023-05-16T16:17:26.770Z,15.69
2023-05-16T16:19:54.497Z,15.40
2023-05-16T16:22:23.373Z,15.59
2023-05-16T16:24:50.926Z,15.58
2023-05-16T16:27:18.417Z,15.61
2023-05-16T16:29:45.972Z,16.06
2023-05-16T16:32:13.634Z,16.08
2023-05-16T16:34:41.187Z,16.22
2023-05-16T16:37:09.962Z,16.49
2023-05-16T16:39:39.161Z,15.99
2023-05-16T16:42:07.577Z,15.94
2023-05-16T16:44:35.196Z,16.00
2023-05-16T16:47:03.100Z,16.09
2023-05-16T16:49:31.342Z,15.95
2023-05-16T16:51:58.848Z,15.64
2023-05-16T16:54:27.965Z,15.54
2023-05-16T16:56:56.944Z,15.50
2023-05-16T16:59:24.562Z,15.64
2023-05-16T17:01:52.251Z,15.37
2023-05-16T17:04:19.889Z,15.26
2023-05-16T17:06:48.839Z,14.81
2023-05-16T17:09:18.329Z,15.19
2023-05-16T17:11:46.714Z,14.96
2023-05-16T17:14:15.570Z,14.95
2023-05-16T17:16:43.140Z,15.12
2023-05-16T17:19:11.096Z,14.80
2023-05-16T17:21:40.414Z,14.93
2023-05-16T17:24:08.643Z,15.03
2023-05-16T17:26:36.534Z,14.81
2023-05-16T17:29:05.066Z,14.72
2023-05-16T17:31:34.022Z,14.41
2023-05-16T17:34:01.527Z,14.07
2023-05-16T17:36:29.076Z,14.28
2023-05-16T17:38:56.627Z,14.13
2023-05-16T17:41:24.163Z,14.42
2023-05-16T17:43:51.659Z,14.29
2023-05-16T17:46:19.156Z,14.40
2023-05-16T17:48:50.965Z,14.63
2023-05-16T17:51:18.631Z,14.23
2023-05-16T17:53:46.329Z,14.14
2023-05-16T17:56:13.956Z,14.26
2023-05-16T17:58:41.728Z,14.12
2023-05-16T18:01:10.151Z,14.02
2023-05-16T18:03:38.500Z,14.03
2023-05-16T18:06:08.257Z,13.85
2023-05-16T18:08:35.863Z,13.84
2023-05-16T18:11:03.400Z,14.12
2023-05-16T18:13:31.143Z,14.03
2023-05-16T18:15:58.749Z,14.08
2023-05-16T18:18:27.298Z,13.95
2023-05-16T18:20:54.984Z,13.60
2023-05-16T18:23:24.642Z,13.85
2023-05-16T18:25:52.627Z,13.62
2023-05-16T18:28:21.291Z,13.46
2023-05-16T18:30:48.936Z,13.56
2023-05-16T18:33:16.758Z,13.74
2023-05-16T18:35:44.349Z,13.85
2023-05-16T18:38:20.077Z,13.73
2023-05-16T18:40:57.500Z,13.68
2023-05-16T18:43:25.101Z,13.68
2023-05-16T18:45:52.639Z,13.64
2023-05-16T18:48:20.329Z,13.75
2023-05-16T18:50:47.892Z,13.83
2023-05-16T18:53:15.464Z,13.70
2023-05-16T18:55:43.034Z,13.69
2023-05-16T18:58:12.385Z,13.86
2023-05-16T19:00:39.925Z,13.59
2023-05-16T19:03:07.915Z,13.70
2023-05-16T19:05:35.623Z,13.96
2023-05-16T19:08:03.306Z,14.00
2023-05-16T19:10:32.017Z,13.86
2023-05-16T19:13:06.817Z,13.78
2023-05-16T19:15:36.203Z,13.44
2023-05-16T19:18:04.784Z,13.60
2023-05-16T19:20:34.095Z,13.50
2023-05-16T19:23:01.629Z,13.67
2023-05-16T19:25:29.142Z,13.54
2023-05-16T19:27:56.644Z,13.68
2023-05-16T19:30:24.281Z,13.59
2023-05-16T19:32:53.197Z,13.22
2023-05-16T19:35:20.980Z,13.25
2023-05-16T19:37:48.482Z,13.71
2023-05-16T19:40:17.457Z,13.63
2023-05-16T19:42:45.174Z,13.59
2023-05-16T19:45:12.719Z,13.67
2023-05-16T19:47:40.744Z,13.56
2023-05-16T19:50:10.951Z,13.28
2023-05-16T19:52:38.476Z,13.47
2023-05-16T19:55:08.349Z,13.31
2023-05-16T19:57:35.990Z,13.20
2023-05-16T20:00:05.039Z,13.25
2023-05-16T20:02:32.871Z,13.13
2023-05-16T20:05:00.458Z,13.29
2023-05-16T20:07:29.310Z,13.23
2023-05-16T20:09:56.886Z,13.24
2023-05-16T20:12:24.761Z,13.41
2023-05-16T20:14:52.620Z,13.28
2023-05-16T20:17:20.181Z,13.13
2023-05-16T20:19:48.049Z,13.14
2023-05-16T20:22:15.655Z,13.31
2023-05-16T20:24:44.500Z,13.21
2023-05-16T20:27:12.413Z,12.98
2023-05-16T20:29:39.974Z,12.85
2023-05-16T20:32:08.706Z,12.55
2023-05-16T20:34:36.326Z,12.62
2023-05-16T20:37:03.965Z,12.53
2023-05-16T20:39:31.713Z,12.49
2023-05-16T20:42:00.575Z,12.73
2023-05-16T20:44:28.739Z,12.71
2023-05-16T20:46:56.555Z,12.65
2023-05-16T20:49:24.091Z,12.53
2023-05-16T20:51:51.618Z,12.27
2023-05-16T20:54:19.200Z,12.40
2023-05-16T20:56:46.907Z,12.38
2023-05-16T20:59:15.835Z,12.39
2023-05-16T21:01:43.559Z,12.40
2023-05-16T21:04:11.298Z,12.48
2023-05-16T21:06:38.865Z,12.62
2023-05-16T21:09:06.383Z,12.68
2023-05-16T21:11:33.932Z,12.74
2023-05-16T21:14:01.624Z,12.48
2023-05-16T21:16:31.236Z,12.85
2023-05-16T21:19:01.406Z,12.74
2023-05-16T21:21:29.100Z,12.52
2023-05-16T21:23:56.780Z,12.53
2023-05-16T21:26:24.649Z,12.40
2023-05-16T21:28:55.413Z,12.48
2023-05-16T21:31:23.620Z,12.27
2023-05-16T21:33:52.713Z,12.21
2023-05-16T21:36:20.576Z,12.13
2023-05-16T21:38:48.201Z,12.33
2023-05-16T21:41:15.974Z,12.02
2023-05-16T21:43:43.495Z,12.05
2023-05-16T21:46:10.971Z,12.09
2023-05-16T21:48:38.564Z,12.07
2023-05-16T21:51:07.579Z,12.15
2023-05-16T21:53:35.108Z,12.32
2023-05-16T21:56:02.712Z,12.01
2023-05-16T21:58:30.238Z,12.09
2023-05-16T22:00:57.816Z,12.17
2023-05-16T22:03:25.504Z,11.88
2023-05-16T22:05:55.782Z,11.92
2023-05-16T22:08:24.847Z,11.88
2023-05-16T22:10:52.756Z,12.13
2023-05-16T22:13:20.572Z,12.27
2023-05-16T22:16:03.496Z,12.04
2023-05-16T22:18:32.853Z,12.15
2023-05-16T22:21:00.759Z,12.01
2023-05-16T22:23:29.713Z,12.04
2023-05-16T22:25:57.190Z,11.99
2023-05-16T22:28:24.809Z,11.79
2023-05-16T22:30:52.294Z,11.93
2023-05-16T22:33:19.895Z,11.79
2023-05-16T22:35:47.544Z,11.64
2023-05-16T22:38:15.099Z,11.58
2023-05-16T22:40:44.501Z,11.74
2023-05-16T22:43:11.993Z,11.66
2023-05-16T22:45:41.609Z,11.57
2023-05-16T22:48:09.177Z,11.60
2023-05-16T22:50:36.991Z,11.51
2023-05-16T22:53:04.462Z,11.33
2023-05-16T22:55:33.138Z,11.20
2023-05-16T22:58:01.968Z,11.10
2023-05-16T23:00:29.632Z,11.04
2023-05-16T23:02:57.210Z,10.75
2023-05-16T23:05:24.839Z,10.99
2023-05-16T23:07:52.357Z,10.74
2023-05-16T23:10:21.859Z,10.35
2023-05-16T23:12:52.067Z,10.40
2023-05-16T23:15:22.222Z,10.18
2023-05-16T23:17:49.861Z,10.09
2023-05-16T23:20:20.422Z,10.08
2023-05-16T23:22:47.976Z,9.70
2023-05-16T23:25:18.331Z,9.30
2023-05-16T23:27:45.794Z,9.18
2023-05-16T23:30:13.900Z,8.97
2023-05-16T23:32:42.770Z,8.85
2023-05-16T23:35:10.552Z,9.13
2023-05-16T23:37:38.085Z,9.04
2023-05-16T23:40:06.718Z,8.74
2023-05-16T23:42:34.241Z,8.60
2023-05-16T23:45:01.717Z,8.93
2023-05-16T23:47:29.354Z,8.99
2023-05-16T23:49:58.234Z,8.78
2023-05-16T23:52:25.814Z,8.85
2023-05-16T23:54:53.288Z,8.80
2023-05-16T23:57:22.238Z,8.89
2023-05-16T23:59:49.790Z,8.93
